createdAt,value
2024-04-18T00:01:39.347Z,99391.44
2024-04-18T00:04:06.680Z,99394.50
2024-04-18T00:06:34.088Z,99391.88
2024-04-18T00:09:01.423Z,99398.91
2024-04-18T00:11:28.593Z,99396.63
2024-04-18T00:13:55.768Z,99393.47
2024-04-18T00:16:22.941Z,99392.84
2024-04-18T00:18:50.160Z,99393.28
2024-04-18T00:21:17.416Z,99388.47
2024-04-18T00:23:45.093Z,99388.69
2024-04-18T00:26:12.274Z,99390.47
2024-04-18T00:28:39.465Z,99389.63
2024-04-18T00:31:06.680Z,99387.00
2024-04-18T00:33:33.879Z,99390.81
2024-04-18T00:36:01.092Z,99389.34
2024-04-18T00:38:28.261Z,99395.31
2024-04-18T00:40:55.454Z,99394.81
2024-04-18T00:43:22.652Z,99397.50
2024-04-18T00:45:49.888Z,99388.69
2024-04-18T00:48:17.336Z,99405.38
2024-04-18T00:50:45.247Z,99402.25
2024-04-18T00:53:12.856Z,99393.31
2024-04-18T00:55:42.244Z,99399.31
2024-04-18T00:58:13.200Z,99398.88
2024-04-18T01:00:42.566Z,99404.34
2024-04-18T01:03:09.875Z,99404.34
2024-04-18T01:05:37.412Z,99413.16
2024-04-18T01:08:05.421Z,99417.44
2024-04-18T01:10:32.589Z,99411.78
2024-04-18T01:13:03.132Z,99416.81
2024-04-18T01:15:30.430Z,99417.34
2024-04-18T01:17:57.681Z,99412.41
2024-04-18T01:20:26.323Z,99416.19
2024-04-18T01:22:53.592Z,99415.09
2024-04-18T01:25:20.783Z,99408.06
2024-04-18T01:27:47.982Z,99404.50
2024-04-18T01:30:15.221Z,99400.97
2024-04-18T01:32:42.556Z,99406.63
2024-04-18T01:35:09.874Z,99409.97
2024-04-18T01:37:37.072Z,99417.56
2024-04-18T01:40:05.661Z,99413.19
2024-04-18T01:42:32.858Z,99422.22
2024-04-18T01:45:00.205Z,99426.41
2024-04-18T01:47:27.500Z,99421.19
2024-04-18T01:49:54.762Z,99424.47
2024-04-18T01:52:21.939Z,99420.88
2024-04-18T01:54:49.156Z,99425.19
2024-04-18T01:57:16.488Z,99431.16
2024-04-18T01:59:43.732Z,99432.44
2024-04-18T02:02:10.945Z,99435.09
2024-04-18T02:04:38.246Z,99437.66
2024-04-18T02:07:06.206Z,99433.16
2024-04-18T02:09:33.450Z,99441.53
2024-04-18T02:12:00.662Z,99438.50
2024-04-18T02:14:27.889Z,99441.63
2024-04-18T02:16:55.082Z,99434.63
2024-04-18T02:19:22.476Z,99429.38
2024-04-18T02:21:49.729Z,99430.53
2024-04-18T02:24:16.947Z,99432.13
2024-04-18T02:26:44.983Z,99421.50
2024-04-18T02:29:12.161Z,99418.59
2024-04-18T02:31:39.401Z,99430.75
2024-04-18T02:34:07.200Z,99430.84
2024-04-18T02:36:34.443Z,99424.66
2024-04-18T02:39:01.639Z,99424.88
2024-04-18T02:41:28.825Z,99424.75
2024-04-18T02:43:56.259Z,99423.72
2024-04-18T02:46:24.455Z,99430.63
2024-04-18T02:48:51.708Z,99433.38
2024-04-18T02:51:18.967Z,99423.72
2024-04-18T02:53:46.164Z,99428.13
2024-04-18T02:56:13.338Z,99432.75
2024-04-18T02:58:40.508Z,99437.97
2024-04-18T03:01:07.799Z,99429.78
2024-04-18T03:03:35.101Z,99441.34
2024-04-18T03:06:04.009Z,99441.56
2024-04-18T03:08:31.530Z,99439.84
2024-04-18T03:10:58.732Z,99436.53
2024-04-18T03:13:26.152Z,99440.94
2024-04-18T03:15:53.383Z,99448.66
2024-04-18T03:18:20.715Z,99453.06
2024-04-18T03:20:54.605Z,99449.63
2024-04-18T03:23:21.783Z,99457.06
2024-04-18T03:25:50.942Z,99447.09
2024-04-18T03:28:18.274Z,99456.41
2024-04-18T03:30:45.579Z,99452.66
2024-04-18T03:33:12.963Z,99453.69
2024-04-18T03:35:40.597Z,99461.75
2024-04-18T03:38:07.913Z,99455.91
2024-04-18T03:40:36.426Z,99458.31
2024-04-18T03:43:04.075Z,99455.69
2024-04-18T03:45:31.365Z,99449.50
2024-04-18T03:47:58.655Z,99459.78
2024-04-18T03:50:25.851Z,99460.59
2024-04-18T03:52:53.041Z,99466.69
2024-04-18T03:55:20.303Z,99462.50
2024-04-18T03:57:47.650Z,99471.28
2024-04-18T04:00:14.976Z,99460.31
2024-04-18T04:02:42.269Z,99468.03
2024-04-18T04:05:09.686Z,99466.59
2024-04-18T04:07:36.895Z,99466.59
2024-04-18T04:10:04.150Z,99473.69
2024-04-18T04:12:31.413Z,99480.72
2024-04-18T04:14:58.613Z,99479.25
2024-04-18T04:17:25.908Z,99490.56
2024-04-18T04:19:53.479Z,99483.66
2024-04-18T04:22:20.985Z,99486.28
2024-04-18T04:24:48.213Z,99493.59
2024-04-18T04:27:15.630Z,99498.63
2024-04-18T04:29:42.969Z,99508.16
2024-04-18T04:32:21.265Z,99509.13
2024-04-18T04:34:50.303Z,99511.09
2024-04-18T04:37:21.119Z,99508.38
2024-04-18T04:39:48.898Z,99518.22
2024-04-18T04:42:16.378Z,99521.69
2024-04-18T04:44:43.798Z,99524.31
2024-04-18T04:47:10.973Z,99521.16
2024-04-18T04:49:38.412Z,99514.44
2024-04-18T04:52:07.498Z,99514.25
2024-04-18T04:54:34.799Z,99517.69
2024-04-18T04:57:02.000Z,99520.81
2024-04-18T04:59:29.255Z,99518.84
2024-04-18T05:01:56.507Z,99522.75
2024-04-18T05:04:23.751Z,99527.25
2024-04-18T05:06:51.020Z,99523.66
2024-04-18T05:09:18.944Z,99529.53
2024-04-18T05:11:47.146Z,99520.22
2024-04-18T05:14:14.925Z,99532.81
2024-04-18T05:16:42.178Z,99530.84
2024-04-18T05:19:11.014Z,99537.75
2024-04-18T05:21:38.698Z,99539.22
2024-04-18T05:24:06.142Z,99546.97
2024-04-18T05:26:34.383Z,99547.28
2024-04-18T05:29:20.295Z,99547.78
2024-04-18T05:31:48.766Z,99557.94
2024-04-18T05:34:15.930Z,99554.91
2024-04-18T05:36:45.534Z,99553.75
2024-04-18T05:39:12.910Z,99557.28
2024-04-18T05:41:40.268Z,99557.00
2024-04-18T05:44:07.454Z,99562.69
2024-04-18T05:46:34.636Z,99563.41
2024-04-18T05:49:01.883Z,99562.69
2024-04-18T05:51:29.143Z,99566.44
2024-04-18T05:53:56.501Z,99566.72
2024-04-18T05:56:23.943Z,99564.88
2024-04-18T05:58:51.131Z,99564.13
2024-04-18T06:01:18.761Z,99568.41
2024-04-18T06:03:45.984Z,99563.28
2024-04-18T06:06:13.198Z,99568.31
2024-04-18T06:08:40.396Z,99569.78
2024-04-18T06:11:07.675Z,99574.50
2024-04-18T06:13:38.180Z,99567.19
2024-04-18T06:16:05.566Z,99570.16
2024-04-18T06:18:33.018Z,99575.72
2024-04-18T06:21:02.520Z,99570.78
2024-04-18T06:23:29.692Z,99569.84
2024-04-18T06:25:57.882Z,99571.31
2024-04-18T06:28:25.692Z,99572.97
2024-04-18T06:30:53.422Z,99572.97
2024-04-18T06:33:20.853Z,99583.06
2024-04-18T06:35:48.131Z,99580.97
2024-04-18T06:38:15.338Z,99585.81
2024-04-18T06:40:42.591Z,99582.31
2024-04-18T06:43:09.799Z,99588.84
2024-04-18T06:45:39.799Z,99592.09
2024-04-18T06:48:09.902Z,99596.03
2024-04-18T06:50:38.285Z,99601.09
2024-04-18T06:53:06.911Z,99591.34
2024-04-18T06:55:35.656Z,99602.53
2024-04-18T06:58:02.952Z,99600.78
2024-04-18T07:00:30.248Z,99603.00
2024-04-18T07:02:57.591Z,99612.53
2024-04-18T07:05:25.118Z,99613.47
2024-04-18T07:07:55.712Z,99616.00
2024-04-18T07:10:22.882Z,99616.81
2024-04-18T07:12:50.173Z,99627.09
2024-04-18T07:15:17.461Z,99620.06
2024-04-18T07:17:44.910Z,99620.41
2024-04-18T07:20:12.134Z,99613.56
2024-04-18T07:22:40.557Z,99620.06
2024-04-18T07:25:07.912Z,99622.28
2024-04-18T07:27:35.150Z,99618.47
2024-04-18T07:30:02.380Z,99612.72
2024-04-18T07:32:29.609Z,99620.16
2024-04-18T07:34:56.879Z,99610.91
2024-04-18T07:37:27.738Z,99616.34
2024-04-18T07:39:57.613Z,99616.72
2024-04-18T07:42:24.819Z,99619.28
2024-04-18T07:44:52.060Z,99624.19
2024-04-18T07:47:19.292Z,99627.56
2024-04-18T07:49:49.273Z,99631.72
2024-04-18T07:52:17.484Z,99626.00
2024-04-18T07:54:45.580Z,99631.91
2024-04-18T07:57:13.956Z,99640.44
2024-04-18T07:59:42.414Z,99636.56
2024-04-18T08:02:11.655Z,99635.97
2024-04-18T08:04:52.991Z,99641.09
2024-04-18T08:07:28.387Z,99646.47
2024-04-18T08:10:00.827Z,99644.56
2024-04-18T08:12:35.218Z,99651.16
2024-04-18T08:15:11.318Z,99648.31
2024-04-18T08:17:41.923Z,99646.44
2024-04-18T08:20:09.503Z,99641.88
2024-04-18T08:22:36.694Z,99640.00
2024-04-18T08:25:04.509Z,99640.84
2024-04-18T08:27:31.840Z,99643.75
2024-04-18T08:29:59.054Z,99642.25
2024-04-18T08:32:26.541Z,99645.59
2024-04-18T08:34:53.869Z,99649.19
2024-04-18T08:37:21.401Z,99650.56
2024-04-18T08:39:48.624Z,99646.59
2024-04-18T08:42:21.553Z,99651.13
2024-04-18T08:44:51.165Z,99652.13
2024-04-18T08:47:19.820Z,99653.72
2024-04-18T08:49:47.425Z,99641.81
2024-04-18T08:52:15.018Z,99644.16
2024-04-18T08:54:42.349Z,99646.50
2024-04-18T08:57:11.786Z,99648.34
2024-04-18T08:59:38.990Z,99648.59
2024-04-18T09:02:06.871Z,99655.94
2024-04-18T09:04:36.430Z,99654.38
2024-04-18T09:07:04.075Z,99656.50
2024-04-18T09:09:31.640Z,99664.16
2024-04-18T09:12:01.021Z,99664.34
2024-04-18T09:14:28.260Z,99663.84
2024-04-18T09:16:55.457Z,99655.41
2024-04-18T09:19:22.757Z,99662.84
2024-04-18T09:21:49.994Z,99669.72
2024-04-18T09:24:17.217Z,99670.53
2024-04-18T09:26:44.452Z,99666.41
2024-04-18T09:29:11.628Z,99670.59
2024-04-18T09:31:43.620Z,99667.44
2024-04-18T09:34:15.457Z,99663.38
2024-04-18T09:36:43.545Z,99671.75
2024-04-18T09:39:20.137Z,99677.38
2024-04-18T09:41:53.520Z,99668.56
2024-04-18T09:44:24.259Z,99679.31
2024-04-18T09:46:53.619Z,99677.31
2024-04-18T09:49:23.345Z,99671.47
2024-04-18T09:51:51.429Z,99676.38
2024-04-18T09:54:20.514Z,99674.56
2024-04-18T09:56:49.214Z,99672.41
2024-04-18T09:59:17.791Z,99674.94
2024-04-18T10:01:45.260Z,99672.91
2024-04-18T10:04:12.605Z,99666.69
2024-04-18T10:06:42.827Z,99662.38
2024-04-18T10:09:11.572Z,99668.97
2024-04-18T10:11:38.918Z,99657.97
2024-04-18T10:14:08.734Z,99657.72
2024-04-18T10:16:47.915Z,99680.97
2024-04-18T10:19:23.494Z,99678.91
2024-04-18T10:22:11.096Z,99674.09
2024-04-18T10:24:51.005Z,99685.09
2024-04-18T10:27:22.096Z,99684.59
2024-04-18T10:29:59.273Z,99688.19
2024-04-18T10:32:33.843Z,99683.53
2024-04-18T10:35:01.263Z,99685.66
2024-04-18T10:37:28.449Z,99678.72
2024-04-18T10:39:58.200Z,99686.53
2024-04-18T10:42:26.367Z,99688.34
2024-04-18T10:44:53.780Z,99677.63
2024-04-18T10:47:22.458Z,99673.31
2024-04-18T10:49:50.216Z,99684.53
2024-04-18T10:52:18.880Z,99682.28
2024-04-18T10:54:49.836Z,99687.91
2024-04-18T10:57:18.627Z,99681.31
2024-04-18T10:59:48.439Z,99684.44
2024-04-18T11:02:16.031Z,99699.03
2024-04-18T11:04:43.325Z,99697.00
2024-04-18T11:07:12.203Z,99688.72
2024-04-18T11:09:42.114Z,99694.59
2024-04-18T11:12:10.163Z,99677.59
2024-04-18T11:14:37.829Z,99696.28
2024-04-18T11:17:05.323Z,99686.44
2024-04-18T11:19:33.532Z,99694.25
2024-04-18T11:22:01.602Z,99698.78
2024-04-18T11:24:30.071Z,99702.75
2024-04-18T11:26:57.525Z,99709.22
2024-04-18T11:29:29.429Z,99690.91
2024-04-18T11:32:17.243Z,99698.31
2024-04-18T11:34:44.525Z,99692.53
2024-04-18T11:37:15.042Z,99691.59
2024-04-18T11:39:43.000Z,99698.03
2024-04-18T11:42:10.380Z,99694.81
2024-04-18T11:44:37.606Z,99694.19
2024-04-18T11:47:04.913Z,99698.88
2024-04-18T11:49:32.147Z,99704.84
2024-04-18T11:51:59.346Z,99692.38
2024-04-18T11:54:26.686Z,99690.56
2024-04-18T11:56:55.429Z,99696.53
2024-04-18T11:59:22.991Z,99694.84
2024-04-18T12:01:50.213Z,99693.25
2024-04-18T12:04:17.537Z,99693.59
2024-04-18T12:06:46.865Z,99695.66
2024-04-18T12:09:14.104Z,99702.41
2024-04-18T12:11:41.425Z,99698.94
2024-04-18T12:14:09.768Z,99689.97
2024-04-18T12:19:04.187Z,99687.09
2024-04-18T12:21:31.588Z,99691.63
2024-04-18T12:23:58.827Z,99699.19
2024-04-18T12:26:26.118Z,99692.09
2024-04-18T12:28:53.403Z,99687.63
2024-04-18T12:31:20.676Z,99693.34
2024-04-18T12:33:47.965Z,99688.41
2024-04-18T12:36:17.229Z,99697.28
2024-04-18T12:38:46.063Z,99686.03
2024-04-18T12:41:13.331Z,99696.72
2024-04-18T12:43:40.506Z,99695.16
2024-04-18T12:46:15.083Z,99693.00
2024-04-18T12:48:50.396Z,99697.91
2024-04-18T12:51:17.910Z,99690.47
2024-04-18T12:53:45.251Z,99702.19
2024-04-18T12:56:12.701Z,99692.94
2024-04-18T12:58:40.957Z,99702.16
2024-04-18T13:01:10.515Z,99702.31
2024-04-18T13:03:37.950Z,99706.19
2024-04-18T13:06:05.430Z,99715.25
2024-04-18T13:08:32.629Z,99715.28
2024-04-18T13:11:00.243Z,99701.25
2024-04-18T13:13:27.448Z,99704.69
2024-04-18T13:15:56.212Z,99707.16
2024-04-18T13:18:24.619Z,99703.16
2024-04-18T13:20:51.794Z,99705.28
2024-04-18T13:23:18.993Z,99711.72
2024-04-18T13:25:46.228Z,99712.78
2024-04-18T13:28:13.517Z,99718.91
2024-04-18T13:30:42.287Z,99718.16
2024-04-18T13:33:09.644Z,99718.66
2024-04-18T13:35:37.238Z,99715.34
2024-04-18T13:38:04.465Z,99708.88
2024-04-18T13:40:31.644Z,99710.94
2024-04-18T13:43:02.963Z,99713.53
2024-04-18T13:45:31.639Z,99717.41
2024-04-18T13:48:00.788Z,99711.59
2024-04-18T13:50:31.468Z,99712.69
2024-04-18T13:52:59.177Z,99714.63
2024-04-18T13:55:26.978Z,99712.16
2024-04-18T13:57:56.436Z,99719.63
2024-04-18T14:00:23.865Z,99723.03
2024-04-18T14:02:51.290Z,99727.66
2024-04-18T14:05:21.861Z,99722.91
2024-04-18T14:07:49.644Z,99725.31
2024-04-18T14:10:16.823Z,99723.28
2024-04-18T14:12:44.084Z,99729.88
2024-04-18T14:15:37.019Z,99733.84
2024-04-18T14:18:24.253Z,99758.91
2024-04-18T14:20:53.987Z,99765.47
2024-04-18T14:23:21.223Z,99770.41
2024-04-18T14:25:48.431Z,99779.31
2024-04-18T14:28:23.260Z,99790.53
2024-04-18T14:30:54.803Z,99788.88
2024-04-18T14:33:22.194Z,99798.44
2024-04-18T14:35:49.472Z,99788.00
2024-04-18T14:38:16.661Z,99803.78
2024-04-18T14:40:52.918Z,99798.03
2024-04-18T14:43:25.052Z,99786.03
2024-04-18T14:45:52.254Z,99794.38
2024-04-18T14:48:19.528Z,99795.25
2024-04-18T14:50:55.550Z,99797.53
2024-04-18T14:53:25.739Z,99801.41
2024-04-18T14:55:54.870Z,99793.16
2024-04-18T14:58:22.114Z,99792.94
2024-04-18T15:00:54.135Z,99792.78
2024-04-18T15:03:22.229Z,99791.47
2024-04-18T15:05:54.215Z,99784.13
2024-04-18T15:08:21.600Z,99787.50
2024-04-18T15:10:49.208Z,99788.94
2024-04-18T15:13:16.807Z,99797.22
2024-04-18T15:15:44.454Z,99797.97
2024-04-18T15:18:13.314Z,99795.94
2024-04-18T15:20:41.512Z,99796.91
2024-04-18T15:23:08.843Z,99794.97
2024-04-18T15:25:36.039Z,99794.19
2024-04-18T15:28:03.210Z,99797.28
2024-04-18T15:30:30.550Z,99795.41
2024-04-18T15:32:57.940Z,99794.19
2024-04-18T15:35:34.103Z,99805.56
2024-04-18T15:38:01.375Z,99801.97
2024-04-18T15:40:29.008Z,99791.94
2024-04-18T15:42:56.311Z,99791.56
2024-04-18T15:45:23.539Z,99801.56
2024-04-18T15:47:50.861Z,99801.06
2024-04-18T15:50:18.843Z,99807.88
2024-04-18T15:52:46.479Z,99804.88
2024-04-18T15:55:20.076Z,99799.53
2024-04-18T15:57:49.455Z,99803.81
2024-04-18T16:00:16.927Z,99805.22
2024-04-18T16:02:46.872Z,99806.84
2024-04-18T16:05:15.307Z,99820.44
2024-04-18T16:07:42.540Z,99821.00
2024-04-18T16:10:10.022Z,99823.94
2024-04-18T16:12:37.237Z,99827.97
2024-04-18T16:15:06.342Z,99821.66
2024-04-18T16:17:34.358Z,99824.41
2024-04-18T16:20:01.696Z,99826.22
2024-04-18T16:22:29.679Z,99832.50
2024-04-18T16:24:56.904Z,99842.63
2024-04-18T16:27:24.158Z,99841.13
2024-04-18T16:29:51.393Z,99846.09
2024-04-18T16:32:18.572Z,99846.31
2024-04-18T16:34:45.818Z,99856.63
2024-04-18T16:37:15.296Z,99854.81
2024-04-18T16:39:44.828Z,99853.69
2024-04-18T16:42:12.098Z,99857.56
2024-04-18T16:44:40.195Z,99853.53
2024-04-18T16:47:07.388Z,99860.06
2024-04-18T16:49:34.607Z,99862.25
2024-04-18T16:52:01.942Z,99855.31
2024-04-18T16:54:29.171Z,99855.94
2024-04-18T16:56:59.051Z,99857.72
2024-04-18T16:59:26.250Z,99859.53
2024-04-18T17:01:53.469Z,99861.31
2024-04-18T17:04:20.833Z,99867.31
2024-04-18T17:06:49.123Z,99862.91
2024-04-18T17:09:19.887Z,99870.34
2024-04-18T17:11:47.417Z,99882.00
2024-04-18T17:14:17.563Z,99872.81
2024-04-18T17:16:44.775Z,99872.19
2024-04-18T17:19:12.120Z,99879.84
2024-04-18T17:21:44.732Z,99877.22
2024-04-18T17:24:11.769Z,99877.78
2024-04-18T17:26:39.006Z,99878.69
2024-04-18T17:29:06.259Z,99883.03
2024-04-18T17:31:33.724Z,99891.81
2024-04-18T17:34:00.989Z,99888.16
2024-04-18T17:36:28.266Z,99883.94
2024-04-18T17:38:55.460Z,99891.19
2024-04-18T17:41:22.660Z,99894.13
2024-04-18T17:43:49.897Z,99895.72
2024-04-18T17:46:17.096Z,99902.56
2024-04-18T17:48:45.397Z,99898.78
2024-04-18T17:51:12.731Z,99892.56
2024-04-18T17:53:40.014Z,99899.41
2024-04-18T17:56:07.286Z,99897.63
2024-04-18T17:58:34.517Z,99904.34
2024-04-18T18:01:01.804Z,99901.84
2024-04-18T18:03:29.614Z,99898.56
2024-04-18T18:05:56.876Z,99899.41
2024-04-18T18:08:25.377Z,99897.81
2024-04-18T18:10:52.642Z,99900.13
2024-04-18T18:13:19.964Z,99905.50
2024-04-18T18:15:47.270Z,99906.78
2024-04-18T18:18:14.673Z,99907.41
2024-04-18T18:20:42.038Z,99909.84
2024-04-18T18:23:09.258Z,99910.78
2024-04-18T18:25:36.543Z,99923.91
2024-04-18T18:28:03.783Z,99918.94
2024-04-18T18:30:31.065Z,99924.63
2024-04-18T18:32:58.325Z,99922.19
2024-04-18T18:35:25.579Z,99931.94
2024-04-18T18:37:55.328Z,99934.69
2024-04-18T18:40:22.608Z,99932.34
2024-04-18T18:42:49.888Z,99934.19
2024-04-18T18:45:17.992Z,99934.47
2024-04-18T18:47:45.233Z,99930.91
2024-04-18T18:50:12.437Z,99928.28
2024-04-18T18:52:40.212Z,99931.84
2024-04-18T18:55:07.987Z,99931.94
2024-04-18T18:57:35.270Z,99926.78
2024-04-18T19:00:02.513Z,99934.47
2024-04-18T19:02:29.790Z,99931.75
2024-04-18T19:04:57.040Z,99927.03
2024-04-18T19:07:24.354Z,99945.00
2024-04-18T19:09:51.948Z,99943.53
2024-04-18T19:12:19.205Z,99943.63
2024-04-18T19:14:46.422Z,99948.03
2024-04-18T19:17:13.675Z,99941.31
2024-04-18T19:19:40.884Z,99939.13
2024-04-18T19:22:08.131Z,99943.63
2024-04-18T19:24:35.390Z,99943.28
2024-04-18T19:27:03.508Z,99944.44
2024-04-18T19:29:40.005Z,99943.34
2024-04-18T19:32:13.381Z,99941.34
2024-04-18T19:34:40.563Z,99941.78
2024-04-18T19:37:07.770Z,99941.31
2024-04-18T19:39:35.057Z,99931.38
2024-04-18T19:42:02.356Z,99938.84
2024-04-18T19:44:31.434Z,99930.41
2024-04-18T19:46:58.926Z,99925.47
2024-04-18T19:49:26.391Z,99927.44
2024-04-18T19:51:53.585Z,99934.38
2024-04-18T19:54:20.906Z,99926.50
2024-04-18T19:56:48.198Z,99927.53
2024-04-18T19:59:15.398Z,99918.00
2024-04-18T20:01:42.582Z,99920.13
2024-04-18T20:04:09.852Z,99924.63
2024-04-18T20:06:37.225Z,99926.50
2024-04-18T20:09:04.466Z,99921.38
2024-04-18T20:11:31.663Z,99930.34
2024-04-18T20:13:58.909Z,99938.97
2024-04-18T20:16:26.382Z,99934.75
2024-04-18T20:18:53.693Z,99938.50
2024-04-18T20:21:20.940Z,99945.59
2024-04-18T20:23:48.172Z,99938.22
2024-04-18T20:26:15.906Z,99930.84
2024-04-18T20:28:43.077Z,99928.94
2024-04-18T20:31:10.272Z,99926.53
2024-04-18T20:33:37.488Z,99906.41
2024-04-18T20:36:04.919Z,99903.50
2024-04-18T20:38:32.521Z,99897.22
2024-04-18T20:40:59.699Z,99902.75
2024-04-18T20:43:26.860Z,99919.97
2024-04-18T20:45:56.558Z,99916.19
2024-04-18T20:48:23.904Z,99917.03
2024-04-18T20:50:51.159Z,99911.06
2024-04-18T20:53:18.339Z,99916.31
2024-04-18T20:55:45.538Z,99915.94
2024-04-18T20:58:12.709Z,99915.56
2024-04-18T21:00:45.235Z,99912.28
2024-04-18T21:03:12.810Z,99909.97
2024-04-18T21:05:42.772Z,99910.63
2024-04-18T21:08:10.059Z,99913.69
2024-04-18T21:10:37.308Z,99908.06
2024-04-18T21:13:05.005Z,99913.19
2024-04-18T21:15:32.445Z,99913.19
2024-04-18T21:17:59.826Z,99909.75
2024-04-18T21:20:27.227Z,99911.72
2024-04-18T21:22:54.884Z,99905.72
2024-04-18T21:25:22.271Z,99911.34
2024-04-18T21:27:50.547Z,99905.91
2024-04-18T21:30:17.973Z,99908.34
2024-04-18T21:32:45.294Z,99912.94
2024-04-18T21:35:14.077Z,99912.84
2024-04-18T21:37:41.330Z,99914.59
2024-04-18T21:40:09.034Z,99912.00
2024-04-18T21:42:36.350Z,99909.59
2024-04-18T21:45:03.623Z,99911.16
2024-04-18T21:47:30.923Z,99909.47
2024-04-18T21:49:58.212Z,99912.00
2024-04-18T21:52:25.470Z,99900.00
2024-04-18T21:54:52.722Z,99900.84
2024-04-18T21:57:20.562Z,99906.09
2024-04-18T21:59:47.858Z,99906.22
2024-04-18T22:02:15.543Z,99898.63
2024-04-18T22:04:43.029Z,99902.94
2024-04-18T22:07:10.403Z,99901.91
2024-04-18T22:09:37.656Z,99901.44
2024-04-18T22:12:04.987Z,99896.66
2024-04-18T22:14:32.696Z,99893.22
2024-04-18T22:17:00.181Z,99900.88
2024-04-18T22:19:27.508Z,99903.03
2024-04-18T22:21:54.852Z,99899.38
2024-04-18T22:24:22.191Z,99896.03
2024-04-18T22:26:49.404Z,99893.41
2024-04-18T22:29:17.255Z,99889.66
2024-04-18T22:31:44.475Z,99893.41
2024-04-18T22:34:22.042Z,99888.44
2024-04-18T22:36:55.434Z,99881.44
2024-04-18T22:39:22.703Z,99881.25
2024-04-18T22:41:49.946Z,99876.03
2024-04-18T22:44:17.183Z,99883.00
2024-04-18T22:46:44.400Z,99879.56
2024-04-18T22:49:11.666Z,99883.00
2024-04-18T22:51:38.958Z,99879.56
2024-04-18T22:54:06.232Z,99868.44
2024-04-18T22:56:33.465Z,99866.75
2024-04-18T22:59:02.322Z,99871.81
2024-04-18T23:01:29.882Z,99872.06
2024-04-18T23:03:57.223Z,99872.44
2024-04-18T23:06:24.559Z,99867.41
2024-04-18T23:08:51.825Z,99870.22
2024-04-18T23:11:22.037Z,99864.50
2024-04-18T23:13:49.909Z,99865.41
2024-04-18T23:16:17.184Z,99873.94
2024-04-18T23:18:44.815Z,99869.66
2024-04-18T23:21:12.335Z,99871.88
2024-04-18T23:23:39.592Z,99862.59
2024-04-18T23:26:06.821Z,99862.59
2024-04-18T23:28:34.037Z,99859.03
2024-04-18T23:31:01.450Z,99852.38
2024-04-18T23:33:29.336Z,99849.22
2024-04-18T23:35:56.651Z,99852.38
2024-04-18T23:38:24.021Z,99850.34
2024-04-18T23:40:51.450Z,99843.25
2024-04-18T23:43:19.180Z,99850.16
2024-04-18T23:45:46.507Z,99849.22
2024-04-18T23:48:14.017Z,99846.41
2024-04-18T23:50:42.691Z,99840.16
2024-04-18T23:53:10.111Z,99837.81
2024-04-18T23:55:37.406Z,99834.44
2024-04-18T23:58:04.744Z,99829.22
